createdAt,value
2018-11-10T00:00:19.889Z,97943.00
2018-11-10T00:02:49.808Z,97931.00
2018-11-10T00:05:20.548Z,97929.00
2018-11-10T00:07:50.065Z,97929.00
2018-11-10T00:10:19.981Z,97927.00
2018-11-10T00:12:49.600Z,97928.00
2018-11-10T00:15:18.772Z,97928.00
2018-11-10T00:17:48.144Z,97918.00
2018-11-10T00:20:17.494Z,97927.00
2018-11-10T00:22:46.655Z,97928.00
2018-11-10T00:25:16.395Z,97922.00
2018-11-10T00:27:46.525Z,97919.00
2018-11-10T00:30:17.321Z,97911.00
2018-11-10T00:32:46.789Z,97911.00
2018-11-10T00:35:16.605Z,97906.00
2018-11-10T00:37:45.684Z,97906.00
2018-11-10T00:40:16.377Z,97897.00
2018-11-10T00:42:45.839Z,97891.00
2018-11-10T00:45:15.540Z,97897.00
2018-11-10T00:47:44.736Z,97887.00
2018-11-10T00:50:14.145Z,97887.00
2018-11-10T00:52:43.296Z,97888.00
2018-11-10T00:55:12.951Z,97890.00
2018-11-10T00:57:42.162Z,97885.00
2018-11-10T01:00:12.967Z,97883.00
2018-11-10T01:02:43.409Z,97883.00
2018-11-10T01:05:13.021Z,97877.00
2018-11-10T01:07:42.361Z,97881.00
2018-11-10T01:10:13.505Z,97874.00
2018-11-10T01:12:43.150Z,97873.00
2018-11-10T01:15:14.543Z,97870.00
2018-11-10T01:17:44.386Z,97860.00
2018-11-10T01:20:14.196Z,97871.00
2018-11-10T01:22:43.361Z,97869.00
2018-11-10T01:25:12.693Z,97865.00
2018-11-10T01:27:42.493Z,97861.00
2018-11-10T01:30:14.279Z,97855.00
2018-11-10T01:32:44.248Z,97854.00
2018-11-10T01:35:13.909Z,97852.00
2018-11-10T01:37:43.089Z,97857.00
2018-11-10T01:40:14.404Z,97843.00
2018-11-10T01:42:43.839Z,97847.00
2018-11-10T01:45:15.380Z,97841.00
2018-11-10T01:47:44.969Z,97832.00
2018-11-10T01:50:14.510Z,97831.00
2018-11-10T01:52:44.219Z,97830.00
2018-11-10T01:55:13.536Z,97827.00
2018-11-10T01:57:43.341Z,97821.00
2018-11-10T02:00:17.877Z,97820.00
2018-11-10T02:02:47.652Z,97823.00
2018-11-10T02:05:17.384Z,97817.00
2018-11-10T02:07:46.562Z,97818.00
2018-11-10T02:10:15.815Z,97817.00
2018-11-10T02:12:45.011Z,97813.00
2018-11-10T02:15:16.116Z,97815.00
2018-11-10T02:17:46.017Z,97820.00
2018-11-10T02:20:16.145Z,97822.00
2018-11-10T02:22:45.349Z,97822.00
2018-11-10T02:25:15.146Z,97814.00
2018-11-10T02:27:44.289Z,97803.00
2018-11-10T02:30:13.997Z,97796.00
2018-11-10T02:32:44.021Z,97805.00
2018-11-10T02:35:13.525Z,97817.00
2018-11-10T02:37:42.997Z,97808.00
2018-11-10T02:40:14.389Z,97807.00
2018-11-10T02:42:44.144Z,97812.00
2018-11-10T02:45:14.460Z,97807.00
2018-11-10T02:47:44.514Z,97803.00
2018-11-10T02:50:13.793Z,97797.00
2018-11-10T02:52:42.980Z,97804.00
2018-11-10T02:55:12.380Z,97807.00
2018-11-10T02:57:42.253Z,97814.00
2018-11-10T03:00:12.805Z,97808.00
2018-11-10T03:02:42.494Z,97803.00
2018-11-10T03:05:12.300Z,97804.00
2018-11-10T03:07:42.277Z,97803.00
2018-11-10T03:10:12.072Z,97801.00
2018-11-10T03:12:41.684Z,97794.00
2018-11-10T03:15:12.827Z,97794.00
2018-11-10T03:17:43.268Z,97781.00
2018-11-10T03:20:14.213Z,97774.00
2018-11-10T03:22:44.213Z,97778.00
2018-11-10T03:25:14.905Z,97778.00
2018-11-10T03:27:44.117Z,97763.00
2018-11-10T03:30:13.373Z,97768.00
2018-11-10T03:32:42.506Z,97771.00
2018-11-10T03:35:11.743Z,97764.00
2018-11-10T03:37:41.976Z,97754.00
2018-11-10T03:40:12.731Z,97764.00
2018-11-10T03:42:41.879Z,97754.00
2018-11-10T03:45:12.408Z,97751.00
2018-11-10T03:47:42.124Z,97749.00
2018-11-10T03:50:11.971Z,97760.00
2018-11-10T03:52:41.660Z,97763.00
2018-11-10T03:55:11.065Z,97762.00
2018-11-10T03:57:40.185Z,97757.00
2018-11-10T04:00:14.729Z,97756.00
2018-11-10T04:02:45.768Z,97759.00
2018-11-10T04:05:15.832Z,97753.00
2018-11-10T04:07:46.259Z,97760.00
2018-11-10T04:10:16.333Z,97762.00
2018-11-10T04:12:45.488Z,97748.00
2018-11-10T04:15:14.617Z,97752.00
2018-11-10T04:17:43.761Z,97746.00
2018-11-10T04:20:12.965Z,97746.00
2018-11-10T04:22:42.073Z,97746.00
2018-11-10T04:25:12.602Z,97736.00
2018-11-10T04:27:41.833Z,97735.00
2018-11-10T04:30:11.809Z,97733.00
2018-11-10T04:32:41.861Z,97731.00
2018-11-10T04:35:10.969Z,97736.00
2018-11-10T04:37:40.216Z,97734.00
2018-11-10T04:40:10.293Z,97727.00
2018-11-10T04:42:39.844Z,97723.00
2018-11-10T04:45:10.781Z,97719.00
2018-11-10T04:47:40.840Z,97723.00
2018-11-10T04:50:11.325Z,97722.00
2018-11-10T04:52:41.173Z,97725.00
2018-11-10T04:55:11.433Z,97715.00
2018-11-10T04:57:41.059Z,97704.00
2018-11-10T05:00:13.685Z,97707.00
2018-11-10T05:02:43.594Z,97705.00
2018-11-10T05:05:12.855Z,97706.00
2018-11-10T05:07:42.213Z,97715.00
2018-11-10T05:10:11.693Z,97711.00
2018-11-10T05:12:41.571Z,97723.00
2018-11-10T05:15:12.117Z,97726.00
2018-11-10T05:17:42.248Z,97721.00
2018-11-10T05:20:11.501Z,97713.00
2018-11-10T05:22:40.664Z,97722.00
2018-11-10T05:25:10.617Z,97718.00
2018-11-10T05:27:40.065Z,97713.00
2018-11-10T05:30:10.092Z,97706.00
2018-11-10T05:32:39.285Z,97702.00
2018-11-10T05:35:08.945Z,97707.00
2018-11-10T05:37:39.055Z,97708.00
2018-11-10T05:40:09.989Z,97714.00
2018-11-10T05:42:40.089Z,97706.00
2018-11-10T05:45:09.540Z,97704.00
2018-11-10T05:47:38.684Z,97701.00
2018-11-10T05:50:08.816Z,97702.00
2018-11-10T05:52:37.985Z,97708.00
2018-11-10T05:55:08.017Z,97702.00
2018-11-10T05:57:37.737Z,97704.00
2018-11-10T06:00:09.886Z,97708.00
2018-11-10T06:02:39.040Z,97700.00
2018-11-10T06:05:08.213Z,97700.00
2018-11-10T06:07:37.400Z,97699.00
2018-11-10T06:10:08.317Z,97695.00
2018-11-10T06:12:37.421Z,97701.00
2018-11-10T06:15:07.813Z,97706.00
2018-11-10T06:17:36.968Z,97711.00
2018-11-10T06:20:08.304Z,97705.00
2018-11-10T06:22:37.426Z,97702.00
2018-11-10T06:25:08.442Z,97709.00
2018-11-10T06:27:37.637Z,97715.00
2018-11-10T06:30:09.445Z,97710.00
2018-11-10T06:32:39.722Z,97722.00
2018-11-10T06:35:09.453Z,97722.00
2018-11-10T06:37:39.565Z,97724.00
2018-11-10T06:40:12.572Z,97729.00
2018-11-10T06:42:42.552Z,97719.00
2018-11-10T06:45:11.717Z,97733.00
2018-11-10T06:47:40.953Z,97728.00
2018-11-10T06:50:11.228Z,97729.00
2018-11-10T06:52:40.726Z,97731.00
2018-11-10T06:55:10.692Z,97731.00
2018-11-10T06:57:40.905Z,97731.00
2018-11-10T07:00:13.160Z,97740.00
2018-11-10T07:02:42.674Z,97735.00
2018-11-10T07:05:12.512Z,97732.00
2018-11-10T07:07:42.599Z,97735.00
2018-11-10T07:10:12.213Z,97734.00
2018-11-10T07:12:41.433Z,97736.00
2018-11-10T07:15:11.249Z,97745.00
2018-11-10T07:17:40.498Z,97741.00
2018-11-10T07:20:09.629Z,97741.00
2018-11-10T07:22:38.804Z,97748.00
2018-11-10T07:25:08.697Z,97748.00
2018-11-10T07:27:37.760Z,97748.00
2018-11-10T07:30:10.313Z,97752.00
2018-11-10T07:32:39.591Z,97748.00
2018-11-10T07:35:09.906Z,97751.00
2018-11-10T07:37:39.369Z,97747.00
2018-11-10T07:40:11.257Z,97751.00
2018-11-10T07:42:41.145Z,97750.00
2018-11-10T07:45:12.376Z,97747.00
2018-11-10T07:47:42.128Z,97751.00
2018-11-10T07:50:12.132Z,97757.00
2018-11-10T07:52:41.948Z,97755.00
2018-11-10T07:55:13.139Z,97756.00
2018-11-10T07:57:42.601Z,97756.00
2018-11-10T08:00:15.313Z,97759.00
2018-11-10T08:02:44.537Z,97760.00
2018-11-10T08:05:14.393Z,97761.00
2018-11-10T08:07:44.529Z,97765.00
2018-11-10T08:10:14.415Z,97763.00
2018-11-10T08:12:43.585Z,97763.00
2018-11-10T08:15:14.968Z,97766.00
2018-11-10T08:17:44.445Z,97758.00
2018-11-10T08:20:14.181Z,97756.00
2018-11-10T08:22:43.339Z,97756.00
2018-11-10T08:25:14.068Z,97759.00
2018-11-10T08:27:43.734Z,97758.00
2018-11-10T08:30:13.935Z,97757.00
2018-11-10T08:32:43.564Z,97757.00
2018-11-10T08:35:14.550Z,97758.00
2018-11-10T08:37:43.769Z,97757.00
2018-11-10T08:40:14.524Z,97756.00
2018-11-10T08:42:43.741Z,97763.00
2018-11-10T08:45:13.897Z,97762.00
2018-11-10T08:47:43.739Z,97767.00
2018-11-10T08:50:13.993Z,97768.00
2018-11-10T08:52:44.021Z,97763.00
2018-11-10T08:55:13.922Z,97766.00
2018-11-10T08:57:44.104Z,97763.00
2018-11-10T09:00:13.449Z,97768.00
2018-11-10T09:02:42.549Z,97770.00
2018-11-10T09:05:13.161Z,97769.00
2018-11-10T09:07:42.924Z,97766.00
2018-11-10T09:10:13.513Z,97762.00
2018-11-10T09:12:43.265Z,97769.00
2018-11-10T09:15:14.105Z,97764.00
2018-11-10T09:17:44.430Z,97770.00
2018-11-10T09:20:14.910Z,97767.00
2018-11-10T09:22:44.252Z,97751.00
2018-11-10T09:25:15.097Z,97750.00
2018-11-10T09:27:44.231Z,97750.00
2018-11-10T09:30:14.844Z,97752.00
2018-11-10T09:32:44.222Z,97748.00
2018-11-10T09:35:14.294Z,97740.00
2018-11-10T09:37:43.480Z,97744.00
2018-11-10T09:40:14.172Z,97744.00
2018-11-10T09:42:43.454Z,97749.00
2018-11-10T09:45:15.000Z,97746.00
2018-11-10T09:47:44.172Z,97757.00
2018-11-10T09:50:17.906Z,97767.00
2018-11-10T09:52:47.283Z,97765.00
2018-11-10T09:55:17.596Z,97760.00
2018-11-10T09:57:46.932Z,97762.00
2018-11-10T10:00:21.943Z,97756.00
2018-11-10T10:02:51.550Z,97757.00
2018-11-10T10:05:20.289Z,97766.00
2018-11-10T10:07:49.426Z,97753.00
2018-11-10T10:10:19.453Z,97750.00
2018-11-10T10:12:49.172Z,97751.00
2018-11-10T10:15:18.941Z,97748.00
2018-11-10T10:17:48.336Z,97754.00
2018-11-10T10:20:19.770Z,97752.00
2018-11-10T10:22:49.696Z,97747.00
2018-11-10T10:25:19.523Z,97747.00
2018-11-10T10:27:49.304Z,97745.00
2018-11-10T10:30:20.784Z,97751.00
2018-11-10T10:32:50.358Z,97755.00
2018-11-10T10:35:19.620Z,97748.00
2018-11-10T10:37:49.653Z,97761.00
2018-11-10T10:40:18.980Z,97756.00
2018-11-10T10:42:48.834Z,97762.00
2018-11-10T10:45:20.128Z,97759.00
2018-11-10T10:47:49.345Z,97746.00
2018-11-10T10:50:19.937Z,97757.00
2018-11-10T10:52:49.125Z,97754.00
2018-11-10T10:55:19.132Z,97745.00
2018-11-10T10:57:49.272Z,97744.00
2018-11-10T11:00:23.752Z,97745.00
2018-11-10T11:02:59.328Z,97740.00
2018-11-10T11:05:33.684Z,97729.00
2018-11-10T11:08:02.885Z,97734.00
2018-11-10T11:10:32.061Z,97729.00
2018-11-10T11:13:01.253Z,97717.00
2018-11-10T11:15:30.678Z,97718.00
2018-11-10T11:17:59.786Z,97721.00
2018-11-10T11:20:28.965Z,97718.00
2018-11-10T11:22:58.157Z,97711.00
2018-11-10T11:25:27.277Z,97717.00
2018-11-10T11:27:56.440Z,97721.00
2018-11-10T11:30:25.653Z,97725.00
2018-11-10T11:32:54.833Z,97721.00
2018-11-10T11:35:24.085Z,97710.00
2018-11-10T11:37:53.345Z,97717.00
2018-11-10T11:40:22.545Z,97725.00
2018-11-10T11:42:51.666Z,97707.00
2018-11-10T11:45:21.053Z,97704.00
2018-11-10T11:47:50.229Z,97700.00
2018-11-10T11:50:19.365Z,97692.00
2018-11-10T11:52:48.459Z,97701.00
2018-11-10T11:55:17.648Z,97694.00
2018-11-10T11:57:47.245Z,97698.00
2018-11-10T12:00:17.600Z,97692.00
2018-11-10T12:02:47.801Z,97693.00
2018-11-10T12:05:17.893Z,97696.00
2018-11-10T12:07:47.477Z,97694.00
2018-11-10T12:10:17.252Z,97680.00
2018-11-10T12:12:46.387Z,97674.00
2018-11-10T12:15:16.884Z,97679.00
2018-11-10T12:17:46.063Z,97683.00
2018-11-10T12:20:15.992Z,97681.00
2018-11-10T12:22:45.144Z,97682.00
2018-11-10T12:25:15.160Z,97668.00
2018-11-10T12:27:44.843Z,97660.00
2018-11-10T12:30:13.998Z,97661.00
2018-11-10T12:32:44.264Z,97651.00
2018-11-10T12:35:15.053Z,97647.00
2018-11-10T12:37:44.217Z,97656.00
2018-11-10T12:40:14.225Z,97653.00
2018-11-10T12:42:43.611Z,97650.00
2018-11-10T12:45:13.721Z,97651.00
2018-11-10T12:47:43.682Z,97652.00
2018-11-10T12:50:13.937Z,97660.00
2018-11-10T12:52:44.334Z,97667.00
2018-11-10T12:55:14.582Z,97671.00
2018-11-10T12:57:44.493Z,97659.00
2018-11-10T13:00:15.121Z,97666.00
2018-11-10T13:02:44.884Z,97678.00
2018-11-10T13:05:14.389Z,97681.00
2018-11-10T13:07:45.036Z,97684.00
2018-11-10T13:10:14.657Z,97682.00
2018-11-10T13:12:44.435Z,97676.00
2018-11-10T13:15:13.921Z,97683.00
2018-11-10T13:17:43.243Z,97682.00
2018-11-10T13:20:13.668Z,97682.00
2018-11-10T13:22:43.341Z,97690.00
2018-11-10T13:25:13.509Z,97692.00
2018-11-10T13:27:43.206Z,97688.00
2018-11-10T13:30:14.085Z,97694.00
2018-11-10T13:32:43.214Z,97691.00
2018-11-10T13:35:12.770Z,97701.00
2018-11-10T13:37:42.075Z,97705.00
2018-11-10T13:40:11.429Z,97704.00
2018-11-10T13:42:40.565Z,97707.00
2018-11-10T13:45:12.133Z,97708.00
2018-11-10T13:47:41.329Z,97706.00
2018-11-10T13:50:11.745Z,97716.00
2018-11-10T13:52:42.325Z,97714.00
2018-11-10T13:55:11.716Z,97716.00
2018-11-10T13:57:41.186Z,97711.00
2018-11-10T14:00:13.631Z,97708.00
2018-11-10T14:02:43.252Z,97703.00
2018-11-10T14:05:13.007Z,97714.00
2018-11-10T14:07:42.585Z,97716.00
2018-11-10T14:10:13.304Z,97717.00
2018-11-10T14:12:43.766Z,97720.00
2018-11-10T14:15:13.176Z,97718.00
2018-11-10T14:17:43.096Z,97715.00
2018-11-10T14:20:14.009Z,97720.00
2018-11-10T14:22:44.708Z,97718.00
2018-11-10T14:25:15.510Z,97719.00
2018-11-10T14:27:45.587Z,97726.00
2018-11-10T14:30:15.872Z,97723.00
2018-11-10T14:32:45.551Z,97719.00
2018-11-10T14:35:14.947Z,97729.00
2018-11-10T14:37:44.128Z,97731.00
2018-11-10T14:40:14.785Z,97731.00
2018-11-10T14:42:44.535Z,97734.00
2018-11-10T14:45:15.413Z,97734.00
2018-11-10T14:47:45.599Z,97730.00
2018-11-10T14:50:16.405Z,97737.00
2018-11-10T14:52:45.696Z,97740.00
2018-11-10T14:55:15.240Z,97738.00
2018-11-10T14:57:44.968Z,97731.00
2018-11-10T15:00:16.921Z,97730.00
2018-11-10T15:02:46.089Z,97725.00
2018-11-10T15:05:16.492Z,97726.00
2018-11-10T15:07:46.505Z,97727.00
2018-11-10T15:10:16.548Z,97724.00
2018-11-10T15:12:45.981Z,97725.00
2018-11-10T15:15:16.305Z,97728.00
2018-11-10T15:17:46.456Z,97723.00
2018-11-10T15:20:16.853Z,97723.00
2018-11-10T15:22:46.709Z,97722.00
2018-11-10T15:25:18.152Z,97714.00
2018-11-10T15:27:47.253Z,97714.00
2018-11-10T15:30:17.876Z,97710.00
2018-11-10T15:32:47.721Z,97709.00
2018-11-10T15:35:18.409Z,97705.00
2018-11-10T15:37:48.926Z,97705.00
2018-11-10T15:40:18.678Z,97704.00
2018-11-10T15:42:47.913Z,97698.00
2018-11-10T15:45:17.988Z,97696.00
2018-11-10T15:47:47.080Z,97694.00
2018-11-10T15:50:17.223Z,97693.00
2018-11-10T15:52:46.728Z,97690.00
2018-11-10T15:55:16.017Z,97687.00
2018-11-10T15:57:45.210Z,97684.00
2018-11-10T16:00:15.852Z,97680.00
2018-11-10T16:02:45.045Z,97679.00
2018-11-10T16:05:15.200Z,97673.00
2018-11-10T16:07:44.945Z,97674.00
2018-11-10T16:10:14.234Z,97678.00
2018-11-10T16:12:44.353Z,97670.00
2018-11-10T16:15:15.008Z,97668.00
2018-11-10T16:17:44.237Z,97672.00
2018-11-10T16:20:15.711Z,97668.00
2018-11-10T16:22:46.780Z,97661.00
2018-11-10T16:25:16.213Z,97664.00
2018-11-10T16:27:45.763Z,97661.00
2018-11-10T16:30:16.307Z,97655.00
2018-11-10T16:32:45.914Z,97662.00
2018-11-10T16:35:15.352Z,97663.00
2018-11-10T16:37:44.500Z,97669.00
2018-11-10T16:40:16.219Z,97655.00
2018-11-10T16:42:46.336Z,97656.00
2018-11-10T16:45:16.344Z,97656.00
2018-11-10T16:47:45.439Z,97657.00
2018-11-10T16:50:14.649Z,97658.00
2018-11-10T16:52:44.488Z,97666.00
2018-11-10T16:55:13.872Z,97660.00
2018-11-10T16:57:43.260Z,97658.00
2018-11-10T17:00:15.911Z,97660.00
2018-11-10T17:02:45.039Z,97660.00
2018-11-10T17:05:14.153Z,97662.00
2018-11-10T17:07:43.316Z,97666.00
2018-11-10T17:10:13.960Z,97672.00
2018-11-10T17:12:43.317Z,97665.00
2018-11-10T17:15:12.649Z,97662.00
2018-11-10T17:17:41.965Z,97664.00
2018-11-10T17:20:14.104Z,97662.00
2018-11-10T17:22:43.569Z,97670.00
2018-11-10T17:25:13.432Z,97668.00
2018-11-10T17:27:43.119Z,97667.00
2018-11-10T17:30:15.705Z,97675.00
2018-11-10T17:32:44.960Z,97674.00
2018-11-10T17:35:14.644Z,97673.00
2018-11-10T17:37:44.111Z,97676.00
2018-11-10T17:40:15.303Z,97685.00
2018-11-10T17:42:45.347Z,97680.00
2018-11-10T17:45:15.964Z,97692.00
2018-11-10T17:47:45.205Z,97693.00
2018-11-10T17:50:15.884Z,97700.00
2018-11-10T17:52:45.126Z,97706.00
2018-11-10T17:55:15.438Z,97704.00
2018-11-10T17:57:45.233Z,97706.00
2018-11-10T18:00:15.062Z,97704.00
2018-11-10T18:02:44.229Z,97703.00
2018-11-10T18:05:14.713Z,97703.00
2018-11-10T18:07:45.583Z,97704.00
2018-11-10T18:10:16.032Z,97709.00
2018-11-10T18:12:46.097Z,97702.00
2018-11-10T18:15:15.624Z,97702.00
2018-11-10T18:17:45.883Z,97702.00
2018-11-10T18:20:16.337Z,97701.00
2018-11-10T18:22:46.836Z,97701.00
2018-11-10T18:25:16.320Z,97707.00
2018-11-10T18:27:45.541Z,97708.00
2018-11-10T18:30:15.471Z,97706.00
2018-11-10T18:32:46.445Z,97713.00
2018-11-10T18:35:15.504Z,97709.00
2018-11-10T18:37:44.624Z,97707.00
2018-11-10T18:40:13.841Z,97710.00
2018-11-10T18:42:43.585Z,97712.00
2018-11-10T18:45:13.280Z,97707.00
2018-11-10T18:47:43.385Z,97708.00
2018-11-10T18:50:15.094Z,97709.00
2018-11-10T18:52:44.499Z,97714.00
2018-11-10T18:55:14.865Z,97710.00
2018-11-10T18:57:45.077Z,97712.00
2018-11-10T19:00:15.172Z,97710.00
2018-11-10T19:02:44.424Z,97714.00
2018-11-10T19:05:16.063Z,97712.00
2018-11-10T19:07:45.149Z,97714.00
2018-11-10T19:10:15.637Z,97714.00
2018-11-10T19:12:44.856Z,97726.00
2018-11-10T19:15:17.065Z,97723.00
2018-11-10T19:17:46.177Z,97725.00
2018-11-10T19:20:16.205Z,97727.00
2018-11-10T19:22:45.451Z,97734.00
2018-11-10T19:25:15.203Z,97738.00
2018-11-10T19:27:44.513Z,97744.00
2018-11-10T19:30:17.423Z,97746.00
2018-11-10T19:32:47.528Z,97743.00
2018-11-10T19:35:17.500Z,97740.00
2018-11-10T19:37:47.373Z,97732.00
2018-11-10T19:40:16.589Z,97727.00
2018-11-10T19:42:46.446Z,97728.00
2018-11-10T19:45:15.608Z,97726.00
2018-11-10T19:47:45.739Z,97725.00
2018-11-10T19:50:15.279Z,97722.00
2018-11-10T19:52:44.582Z,97722.00
2018-11-10T19:55:15.689Z,97722.00
2018-11-10T19:57:45.828Z,97717.00
2018-11-10T20:00:18.040Z,97713.00
2018-11-10T20:02:47.239Z,97722.00
2018-11-10T20:05:16.846Z,97723.00
2018-11-10T20:07:46.169Z,97719.00
2018-11-10T20:10:15.598Z,97722.00
2018-11-10T20:12:44.860Z,97720.00
2018-11-10T20:15:15.590Z,97720.00
2018-11-10T20:17:45.079Z,97718.00
2018-11-10T20:20:15.836Z,97710.00
2018-11-10T20:22:45.232Z,97707.00
2018-11-10T20:25:15.900Z,97704.00
2018-11-10T20:27:46.096Z,97710.00
2018-11-10T20:30:16.929Z,97702.00
2018-11-10T20:32:46.389Z,97702.00
2018-11-10T20:35:15.506Z,97712.00
2018-11-10T20:37:45.433Z,97718.00
2018-11-10T20:40:15.948Z,97711.00
2018-11-10T20:42:45.080Z,97713.00
2018-11-10T20:45:16.766Z,97708.00
2018-11-10T20:47:45.936Z,97706.00
2018-11-10T20:50:15.516Z,97704.00
2018-11-10T20:52:44.781Z,97711.00
2018-11-10T20:55:14.297Z,97710.00
2018-11-10T20:57:43.493Z,97711.00
2018-11-10T21:00:18.945Z,97711.00
2018-11-10T21:02:48.021Z,97713.00
2018-11-10T21:05:17.310Z,97722.00
2018-11-10T21:07:46.469Z,97720.00
2018-11-10T21:10:17.256Z,97722.00
2018-11-10T21:12:47.268Z,97719.00
2018-11-10T21:15:16.903Z,97715.00
2018-11-10T21:17:46.295Z,97732.00
2018-11-10T21:20:15.583Z,97727.00
2018-11-10T21:22:44.919Z,97720.00
2018-11-10T21:25:16.256Z,97723.00
2018-11-10T21:27:45.636Z,97734.00
2018-11-10T21:30:16.253Z,97725.00
2018-11-10T21:32:46.445Z,97728.00
2018-11-10T21:35:15.744Z,97731.00
2018-11-10T21:37:45.841Z,97735.00
2018-11-10T21:40:17.176Z,97741.00
2018-11-10T21:42:46.464Z,97737.00
2018-11-10T21:45:16.373Z,97739.00
2018-11-10T21:47:46.139Z,97745.00
2018-11-10T21:50:16.619Z,97742.00
2018-11-10T21:52:46.320Z,97741.00
2018-11-10T21:55:16.894Z,97742.00
2018-11-10T21:57:46.764Z,97744.00
2018-11-10T22:00:18.289Z,97746.00
2018-11-10T22:02:47.593Z,97748.00
2018-11-10T22:05:16.744Z,97751.00
2018-11-10T22:07:46.023Z,97753.00
2018-11-10T22:10:16.413Z,97757.00
2018-11-10T22:12:46.270Z,97759.00
2018-11-10T22:15:17.051Z,97759.00
2018-11-10T22:17:47.001Z,97756.00
2018-11-10T22:20:18.477Z,97762.00
2018-11-10T22:22:47.741Z,97757.00
2018-11-10T22:25:17.745Z,97758.00
2018-11-10T22:27:48.377Z,97764.00
2018-11-10T22:30:18.759Z,97766.00
2018-11-10T22:32:48.725Z,97769.00
2018-11-10T22:35:18.263Z,97776.00
2018-11-10T22:37:48.257Z,97773.00
2018-11-10T22:40:18.802Z,97782.00
2018-11-10T22:42:48.070Z,97776.00
2018-11-10T22:45:18.817Z,97790.00
2018-11-10T22:47:48.384Z,97803.00
2018-11-10T22:50:18.897Z,97794.00
2018-11-10T22:52:49.064Z,97794.00
2018-11-10T22:55:18.239Z,97792.00
2018-11-10T22:57:47.436Z,97791.00
2018-11-10T23:00:22.389Z,97780.00
2018-11-10T23:02:52.880Z,97785.00
2018-11-10T23:05:22.581Z,97785.00
2018-11-10T23:07:52.725Z,97778.00
2018-11-10T23:10:22.413Z,97787.00
2018-11-10T23:12:52.985Z,97787.00
2018-11-10T23:15:22.127Z,97789.00
2018-11-10T23:17:51.381Z,97788.00
2018-11-10T23:20:20.793Z,97782.00
2018-11-10T23:22:50.023Z,97770.00
2018-11-10T23:25:19.768Z,97777.00
2018-11-10T23:27:48.888Z,97787.00
2018-11-10T23:30:19.655Z,97788.00
2018-11-10T23:32:48.834Z,97795.00
2018-11-10T23:35:18.044Z,97793.00
2018-11-10T23:37:47.192Z,97798.00
2018-11-10T23:40:17.280Z,97800.00
2018-11-10T23:42:46.488Z,97796.00
2018-11-10T23:45:16.237Z,97795.00
2018-11-10T23:47:45.421Z,97798.00
2018-11-10T23:50:16.112Z,97803.00
2018-11-10T23:52:45.292Z,97802.00
2018-11-10T23:55:15.096Z,97809.00
2018-11-10T23:57:44.280Z,97804.00
